You are not logged in, Click here to log in
機場資訊:LSGG Welcome to Taiwan Airways 台灣虛擬航空
ICAO: LSGG Country: 瑞士日內瓦
Latitude: 46.2381 Longitude: 6.10895
Total Arrivals: 19 Total Departures: 17
Latest Arrival: AT930 (GMMN-LSGG)Jason. Li Latest Departure: B2872 (LSGG-UMMS)Jason. Li
Scenery:
METAR : LSGG 141820Z 03002KT CAVOK 16/12 Q1013 NOSIG

日內瓦克萬特蘭國際機場GVA